createdAt,value
2022-10-30T00:00:40.302Z,101956.22
2022-10-30T00:05:43.559Z,101997.41
2022-10-30T00:10:46.876Z,101993.28
2022-10-30T00:15:53.554Z,101997.41
2022-10-30T00:20:56.253Z,101998.59
2022-10-30T00:26:04.216Z,101978.06
2022-10-30T00:31:07.489Z,101991.34
2022-10-30T00:36:10.534Z,101985.75
2022-10-30T00:41:18.045Z,101983.25
2022-10-30T00:46:39.349Z,101990.91
2022-10-30T00:51:46.330Z,101993.56
2022-10-30T00:56:49.661Z,101989.75
2022-10-30T01:02:02.022Z,101991.66
2022-10-30T01:07:18.105Z,101995.78
2022-10-30T01:12:20.926Z,101980.25
2022-10-30T01:18:01.909Z,101992.81
2022-10-30T01:23:23.510Z,101990.28
2022-10-30T01:28:38.902Z,101992.22
2022-10-30T01:33:46.396Z,101985.88
2022-10-30T01:38:53.948Z,101986.44
2022-10-30T01:44:00.164Z,101981.88
2022-10-30T01:49:10.099Z,101984.09
2022-10-30T01:54:27.660Z,101969.22
2022-10-30T01:59:40.901Z,101973.44
2022-10-30T02:04:44.392Z,101954.56
2022-10-30T02:09:47.387Z,101922.72
2022-10-30T02:14:53.818Z,101969.63
2022-10-30T02:19:56.717Z,101970.50
2022-10-30T02:25:02.358Z,101973.56
2022-10-30T02:30:06.469Z,101965.25
2022-10-30T02:35:10.363Z,101951.38
2022-10-30T02:40:13.576Z,101970.97
2022-10-30T02:45:16.376Z,101960.50
2022-10-30T02:50:19.178Z,101936.16
2022-10-30T02:55:21.878Z,101958.38
2022-10-30T03:00:25.253Z,101964.50
2022-10-30T03:05:28.044Z,101943.13
2022-10-30T03:10:30.803Z,101962.00
2022-10-30T03:15:35.189Z,101950.38
2022-10-30T03:20:37.875Z,101927.63
2022-10-30T03:25:40.782Z,101947.22
2022-10-30T03:30:43.512Z,101944.38
2022-10-30T03:35:46.452Z,101939.03
2022-10-30T03:40:49.371Z,101908.16
2022-10-30T03:45:54.696Z,101937.88
2022-10-30T03:50:59.687Z,101929.84
2022-10-30T03:56:04.815Z,101936.88
2022-10-30T04:01:23.087Z,101935.78
2022-10-30T04:06:30.900Z,101920.34
2022-10-30T04:11:33.771Z,101924.78
2022-10-30T04:16:36.574Z,101917.63
2022-10-30T04:21:39.288Z,101914.38
2022-10-30T04:26:42.147Z,101902.59
2022-10-30T04:31:45.679Z,101908.81
2022-10-30T04:36:49.586Z,101899.22
2022-10-30T04:41:52.905Z,101898.44
2022-10-30T04:47:02.409Z,101906.94
2022-10-30T04:52:05.080Z,101893.72
2022-10-30T04:57:08.062Z,101893.47
2022-10-30T05:02:11.297Z,101892.19
2022-10-30T05:07:14.408Z,101888.53
2022-10-30T05:12:19.006Z,101876.91
2022-10-30T05:17:28.332Z,101871.09
2022-10-30T05:22:31.545Z,101872.09
2022-10-30T05:27:34.316Z,101856.59
2022-10-30T05:32:38.124Z,101866.00
2022-10-30T05:37:40.844Z,101858.03
2022-10-30T05:42:50.174Z,101853.81
2022-10-30T05:48:03.568Z,101853.06
2022-10-30T05:53:11.061Z,101849.75
2022-10-30T05:58:15.272Z,101846.38
2022-10-30T06:03:20.192Z,101852.31
2022-10-30T06:08:23.155Z,101843.97
2022-10-30T06:13:29.909Z,101841.00
2022-10-30T06:18:44.636Z,101834.25
2022-10-30T06:23:50.661Z,101840.13
2022-10-30T06:29:19.560Z,101826.41
2022-10-30T06:34:22.457Z,101838.16
2022-10-30T06:39:27.447Z,101832.09
2022-10-30T06:44:50.424Z,101825.31
2022-10-30T06:49:53.268Z,101817.13
2022-10-30T06:54:56.188Z,101817.88
2022-10-30T07:00:18.026Z,101809.34
2022-10-30T07:05:58.977Z,101787.22
2022-10-30T07:11:01.921Z,101791.09
2022-10-30T07:16:23.210Z,101785.66
2022-10-30T07:21:27.017Z,101772.34
2022-10-30T07:26:29.811Z,101775.63
2022-10-30T07:31:42.607Z,101769.34
2022-10-30T07:37:06.403Z,101758.13
2022-10-30T07:42:18.900Z,101751.53
2022-10-30T07:47:43.819Z,101742.22
2022-10-30T07:53:09.343Z,101737.78
2022-10-30T07:58:12.074Z,101737.53
2022-10-30T08:03:32.992Z,101741.53
2022-10-30T08:08:56.913Z,101732.47
2022-10-30T08:14:02.384Z,101724.28
2022-10-30T08:19:05.532Z,101714.41
2022-10-30T08:24:08.812Z,101715.47
2022-10-30T08:29:11.719Z,101710.19
2022-10-30T08:34:15.070Z,101689.75
2022-10-30T08:39:22.962Z,101706.03
2022-10-30T08:44:51.684Z,101690.91
2022-10-30T08:50:12.960Z,101678.38
2022-10-30T08:55:16.213Z,101687.31
2022-10-30T09:00:19.032Z,101672.69
2022-10-30T09:05:40.484Z,101673.13
2022-10-30T09:11:06.219Z,101677.16
2022-10-30T09:16:09.075Z,101678.16
2022-10-30T09:21:13.918Z,101668.59
2022-10-30T09:26:21.045Z,101662.81
2022-10-30T09:31:44.013Z,101666.06
2022-10-30T09:36:50.996Z,101655.25
2022-10-30T09:42:13.388Z,101656.38
2022-10-30T09:47:44.402Z,101650.47
2022-10-30T09:52:56.623Z,101640.28
2022-10-30T09:58:13.060Z,101633.34
2022-10-30T10:03:35.611Z,101630.44
2022-10-30T10:09:21.290Z,101625.19
2022-10-30T10:14:43.531Z,101615.75
2022-10-30T10:19:55.800Z,101618.50
2022-10-30T10:24:58.531Z,101624.03
2022-10-30T10:30:20.849Z,101615.97
2022-10-30T10:35:54.637Z,101609.56
2022-10-30T10:41:09.312Z,101609.03
2022-10-30T10:46:35.210Z,101605.03
2022-10-30T10:51:52.471Z,101594.56
2022-10-30T10:56:56.027Z,101596.31
2022-10-30T11:02:54.397Z,101574.38
2022-10-30T11:08:02.642Z,101574.38
2022-10-30T11:13:05.378Z,101575.63
2022-10-30T11:18:10.276Z,101568.00
2022-10-30T11:23:32.621Z,101563.25
2022-10-30T11:28:54.853Z,101554.06
2022-10-30T11:33:57.561Z,101545.22
2022-10-30T11:39:10.124Z,101548.16
2022-10-30T11:44:13.028Z,101547.91
2022-10-30T11:49:52.872Z,101547.78
2022-10-30T11:55:03.942Z,101539.50
2022-10-30T12:00:14.557Z,101529.69
2022-10-30T12:05:26.396Z,101528.53
2022-10-30T12:10:30.992Z,101525.00
2022-10-30T12:15:37.762Z,101527.94
2022-10-30T12:20:41.128Z,101481.78
2022-10-30T12:25:47.813Z,101509.31
2022-10-30T12:31:24.038Z,101504.66
2022-10-30T12:36:29.570Z,101510.28
2022-10-30T12:41:36.957Z,101499.66
2022-10-30T12:46:56.460Z,101484.50
2022-10-30T12:52:18.307Z,101496.41
2022-10-30T12:57:25.847Z,101496.13
2022-10-30T13:02:49.042Z,101493.06
2022-10-30T13:07:59.085Z,101494.38
2022-10-30T13:13:10.162Z,101479.59
2022-10-30T13:18:23.589Z,101487.06
2022-10-30T13:23:50.866Z,101488.34
2022-10-30T13:29:05.022Z,101486.63
2022-10-30T13:34:30.109Z,101486.03
2022-10-30T13:39:41.202Z,101482.81
2022-10-30T13:44:43.810Z,101479.31
2022-10-30T13:50:16.615Z,101459.44
2022-10-30T13:55:28.270Z,101474.94
2022-10-30T14:01:00.258Z,101435.34
2022-10-30T14:06:14.765Z,101459.47
2022-10-30T14:11:17.459Z,101457.03
2022-10-30T14:16:32.189Z,101455.75
2022-10-30T14:21:55.073Z,101446.47
2022-10-30T14:27:04.742Z,101448.50
2022-10-30T14:32:16.335Z,101449.84
2022-10-30T14:37:27.790Z,101439.66
2022-10-30T14:42:42.590Z,101440.44
2022-10-30T14:47:51.104Z,101438.69
2022-10-30T14:53:10.757Z,101426.97
2022-10-30T14:58:33.343Z,101437.81
2022-10-30T15:03:54.605Z,101424.44
2022-10-30T15:09:15.898Z,101420.03
2022-10-30T15:14:53.679Z,101417.09
2022-10-30T15:19:58.720Z,101408.88
2022-10-30T15:25:03.314Z,101390.50
2022-10-30T15:30:07.248Z,101381.69
2022-10-30T15:35:23.145Z,101390.19
2022-10-30T15:40:26.028Z,101383.41
2022-10-30T15:45:35.869Z,101387.53
2022-10-30T15:50:43.397Z,101352.75
2022-10-30T15:55:46.231Z,101351.84
2022-10-30T16:00:57.571Z,101377.72
2022-10-30T16:06:13.436Z,101372.88
2022-10-30T16:11:16.567Z,101357.47
2022-10-30T16:16:29.388Z,101357.16
2022-10-30T16:21:33.140Z,101352.59
2022-10-30T16:26:37.485Z,101348.50
2022-10-30T16:31:42.383Z,101335.84
2022-10-30T16:36:45.155Z,101329.97
2022-10-30T16:41:48.547Z,101267.72
2022-10-30T16:46:53.640Z,101319.81
2022-10-30T16:52:14.348Z,101305.00
2022-10-30T16:57:25.376Z,101304.41
2022-10-30T17:02:31.655Z,101284.47
2022-10-30T17:07:34.333Z,101276.53
2022-10-30T17:12:36.909Z,101275.94
2022-10-30T17:17:41.494Z,101265.53
2022-10-30T17:22:44.348Z,101251.16
2022-10-30T17:27:51.416Z,101251.44
2022-10-30T17:32:55.301Z,101248.22
2022-10-30T17:38:01.722Z,101247.34
2022-10-30T17:43:05.971Z,101236.03
2022-10-30T17:48:18.783Z,101229.41
2022-10-30T17:53:25.323Z,101230.00
2022-10-30T17:58:28.172Z,101219.16
2022-10-30T18:03:30.803Z,101212.84
2022-10-30T18:08:34.310Z,101217.69
2022-10-30T18:13:36.921Z,101210.19
2022-10-30T18:18:39.983Z,101203.75
2022-10-30T18:23:53.110Z,101211.94
2022-10-30T18:28:56.411Z,101204.47
2022-10-30T18:33:59.164Z,101193.47
2022-10-30T18:39:01.844Z,101197.00
2022-10-30T18:44:05.046Z,101179.41
2022-10-30T18:49:07.838Z,101179.25
2022-10-30T18:54:17.010Z,101175.88
2022-10-30T18:59:19.733Z,101164.41
2022-10-30T19:04:22.792Z,101166.31
2022-10-30T19:09:25.527Z,101177.72
2022-10-30T19:14:28.259Z,101165.97
2022-10-30T19:19:31.006Z,101162.88
2022-10-30T19:24:33.660Z,101150.38
2022-10-30T19:29:36.606Z,101158.59
2022-10-30T19:34:44.587Z,101139.97
2022-10-30T19:39:47.287Z,101145.84
2022-10-30T19:44:49.913Z,101138.28
2022-10-30T19:49:52.570Z,101148.41
2022-10-30T19:54:55.188Z,101134.81
2022-10-30T19:59:57.838Z,101129.25
2022-10-30T20:05:00.508Z,101131.72
2022-10-30T20:10:03.231Z,101121.88
2022-10-30T20:15:06.324Z,101113.31
2022-10-30T20:20:14.305Z,101128.59
2022-10-30T20:25:17.485Z,101100.88
2022-10-30T20:30:23.389Z,101094.56
2022-10-30T20:35:26.223Z,101098.88
2022-10-30T20:40:29.752Z,101097.97
2022-10-30T20:45:32.807Z,101096.66
2022-10-30T20:50:35.498Z,101072.75
2022-10-30T20:55:38.337Z,101063.47
2022-10-30T21:00:41.274Z,101079.59
2022-10-30T21:05:46.083Z,101062.28
2022-10-30T21:10:49.090Z,101071.91
2022-10-30T21:15:51.958Z,101063.41
2022-10-30T21:20:54.623Z,101015.44
2022-10-30T21:26:04.500Z,101048.03
2022-10-30T21:31:13.616Z,101032.69
2022-10-30T21:36:20.211Z,101024.22
2022-10-30T21:41:25.149Z,100987.16
2022-10-30T21:46:30.054Z,101025.66
2022-10-30T21:51:33.013Z,101010.72
2022-10-30T21:56:36.402Z,101016.84
2022-10-30T22:01:40.973Z,101009.34
2022-10-30T22:06:45.477Z,101010.28
2022-10-30T22:11:48.215Z,101010.09
2022-10-30T22:16:51.126Z,101009.34
2022-10-30T22:21:53.763Z,101014.66
2022-10-30T22:26:56.547Z,101000.56
2022-10-30T22:31:59.241Z,101013.50
2022-10-30T22:37:01.994Z,100999.38
2022-10-30T22:42:04.725Z,100980.47
2022-10-30T22:47:07.437Z,100997.31
2022-10-30T22:52:10.061Z,100985.50
2022-10-30T22:57:12.781Z,100990.69
2022-10-30T23:02:15.668Z,100993.13
2022-10-30T23:07:18.614Z,100987.28
2022-10-30T23:12:21.342Z,100988.84
2022-10-30T23:17:24.077Z,100991.75
2022-10-30T23:22:28.585Z,100975.69
2022-10-30T23:27:31.449Z,100970.13
2022-10-30T23:32:34.177Z,100975.91
2022-10-30T23:37:36.907Z,100974.47
2022-10-30T23:42:39.597Z,100973.13
2022-10-30T23:47:42.858Z,100970.56
2022-10-30T23:52:45.684Z,100979.22
2022-10-30T23:57:49.409Z,100974.41
